Sunday, September 23, 2018, 4:57 AM GMT
Back to Local

CYMX, Montreal / Mirabel

Location: , , Canada Lat: 45.683
Local Time: 4:57 AM GMT ( 4:57 GMT) Lon: -74.033
Time Zone: GMT Elev: 269 ft

Show me the last for .
Show Coded

Time T Td Feel RH Dir Speed Gust Alt SLP Vis Weather Sky Remarks
2018-09-23 04:00 43 41 - 93 270° 2 - 30.22 30.23 25 CLR None
2018-09-23 03:00 45 41 - 87 290° 2 - 30.22 30.23 25 FEW250 None
2018-09-23 02:00 46 41 44 81 270° 5 - 30.22 30.23 25 FEW250 None
2018-09-23 01:00 48 41 - 76 Variable 2 - 30.22 30.23 25 CLR None
2018-09-23 00:00 50 39 - 66 - Calm - 30.22 30.23 25 FEW260 None
2018-09-22 23:00 52 39 - 62 - Calm - 30.21 30.22 45 FEW260 None
2018-09-22 22:00 57 39 - 50 240° 6 - 30.20 30.21 45 FEW260 None
2018-09-22 21:00 57 36 - 44 250° 7 - 30.19 30.20 45 FEW050 FEW260 None
2018-09-22 20:00 59 37 - 44 280° 5 - 30.20 30.20 45 FEW050 FEW260 None
2018-09-22 19:00 57 36 - 44 310° 7 - 30.20 30.21 45 FEW050 FEW260 None
2018-09-22 18:00 57 37 - 47 320° 8 - 30.21 30.22 45 FEW050 FEW260 None
2018-09-22 17:00 57 37 - 47 310° 8 - 30.23 30.24 45 FEW050 SCT260 None
2018-09-22 16:00 54 37 - 54 310° 9 17 30.23 30.24 45 FEW040 SCT260 Wind Shift: 55 min
2018-09-22 15:00 54 37 - 54 300° 8 - 30.24 30.24 45 SCT038 SCT150 SCT260 None
2018-09-22 14:00 52 37 - 57 320° 6 - 30.22 30.23 45 FEW038 FEW150 SCT260 None
2018-09-22 13:00 50 37 46 61 330° 10 - 30.20 30.21 45 BKN038 BKN150 BKN250 Pressure rising rapidly
2018-09-22 12:00 48 37 - 66 Variable 2 - 30.16 30.17 45 FEW040 SCT250 None
2018-09-22 11:00 48 37 45 66 310° 8 - 30.11 30.12 45 FEW040 SCT100 SCT250 Pressure rising rapidly
2018-09-22 10:00 50 37 44 61 320° 9 17 30.05 30.06 25 SCT038 None
2018-09-22 09:00 52 39 - 62 300° 8 22 29.97 29.98 25 SCT035 Pressure rising rapidly
2018-09-22 08:00 55 45 - 66 310° 13 26 29.90 29.90 25 BKN035 Pressure rising rapidly
2018-09-22 07:00 59 45 - 58 280° 7 26 29.80 29.81 25 BKN060 Pressure rising rapidly
2018-09-22 06:00 63 50 - 63 260° 10 24 29.73 29.73 25 BKN059 Pressure rising rapidly
2018-09-22 05:00 66 54 - 63 250° 13 25 29.67 29.68 25 FEW040 None

Support USWX by starting your Amazon purchase here.